createdAt,value
2022-12-17T00:01:17.195Z,101494.53
2022-12-17T00:04:07.434Z,101496.59
2022-12-17T00:06:57.618Z,101429.41
2022-12-17T00:09:50.406Z,101502.69
2022-12-17T00:12:40.471Z,101475.44
2022-12-17T00:15:30.466Z,101506.25
2022-12-17T00:18:22.321Z,101504.28
2022-12-17T00:21:17.773Z,101518.94
2022-12-17T00:24:08.073Z,101518.94
2022-12-17T00:26:57.966Z,101509.31
2022-12-17T00:29:47.978Z,101496.66
2022-12-17T00:32:37.947Z,101516.19
2022-12-17T00:35:27.803Z,101495.69
2022-12-17T00:38:17.652Z,101523.78
2022-12-17T00:41:11.682Z,101499.16
2022-12-17T00:44:01.555Z,101492.34
2022-12-17T00:46:51.783Z,101532.31
2022-12-17T00:49:41.763Z,101533.75
2022-12-17T00:52:31.823Z,101538.03
2022-12-17T00:55:22.645Z,101543.19
2022-12-17T00:58:14.135Z,101526.25
2022-12-17T01:01:04.134Z,101532.50
2022-12-17T01:03:53.956Z,101522.94
2022-12-17T01:06:43.925Z,101530.97
2022-12-17T01:09:33.946Z,101553.28
2022-12-17T01:12:23.955Z,101539.63
2022-12-17T01:15:13.831Z,101560.88
2022-12-17T01:18:03.650Z,101537.66
2022-12-17T01:20:53.499Z,101563.25
2022-12-17T01:23:43.600Z,101547.63
2022-12-17T01:26:33.534Z,101556.94
2022-12-17T01:29:23.736Z,101578.06
2022-12-17T01:32:13.563Z,101549.22
2022-12-17T01:35:03.475Z,101552.81
2022-12-17T01:37:53.315Z,101581.00
2022-12-17T01:40:43.345Z,101592.94
2022-12-17T01:43:50.628Z,101567.75
2022-12-17T01:46:42.444Z,101582.84
2022-12-17T01:49:32.664Z,101568.47
2022-12-17T01:52:22.687Z,101586.41
2022-12-17T01:55:13.025Z,101571.94
2022-12-17T01:58:03.333Z,101562.13
2022-12-17T02:00:53.242Z,101591.31
2022-12-17T02:03:43.222Z,101585.56
2022-12-17T02:06:45.038Z,101586.69
2022-12-17T02:09:47.701Z,101592.66
2022-12-17T02:13:00.043Z,101600.66
2022-12-17T02:20:01.831Z,101594.34
2022-12-17T02:23:01.182Z,101595.56
2022-12-17T02:26:14.567Z,101598.75
2022-12-17T02:29:08.130Z,101602.22
2022-12-17T02:32:01.069Z,101606.88
2022-12-17T02:34:51.046Z,101584.88
2022-12-17T02:37:41.125Z,101603.78
2022-12-17T02:40:31.136Z,101602.91
2022-12-17T02:43:21.269Z,101584.22
2022-12-17T02:46:15.145Z,101592.06
2022-12-17T02:49:04.810Z,101595.34
2022-12-17T02:51:58.161Z,101570.97
2022-12-17T02:54:49.078Z,101581.22
2022-12-17T02:57:43.610Z,101577.34
2022-12-17T03:00:45.134Z,101596.59
2022-12-17T03:03:35.875Z,101592.53
2022-12-17T03:06:25.898Z,101589.47
2022-12-17T03:09:15.599Z,101597.91
2022-12-17T03:12:05.354Z,101576.63
2022-12-17T03:14:55.193Z,101558.84
2022-12-17T03:17:45.203Z,101599.16
2022-12-17T03:20:35.199Z,101617.22
2022-12-17T03:23:27.749Z,101616.94
2022-12-17T03:26:18.984Z,101620.00
2022-12-17T03:29:08.909Z,101628.31
2022-12-17T03:31:58.882Z,101636.63
2022-12-17T03:34:49.052Z,101622.72
2022-12-17T03:37:39.126Z,101596.28
2022-12-17T03:40:29.304Z,101618.50
2022-12-17T03:43:27.776Z,101632.72
2022-12-17T03:46:17.610Z,101629.66
2022-12-17T03:49:07.915Z,101645.13
2022-12-17T03:51:57.909Z,101644.91
2022-12-17T03:54:48.179Z,101643.78
2022-12-17T03:57:38.274Z,101629.81
2022-12-17T04:00:28.755Z,101612.06
2022-12-17T04:03:18.453Z,101617.44
2022-12-17T04:06:08.369Z,101648.78
2022-12-17T04:08:58.131Z,101650.38
2022-12-17T04:11:48.192Z,101641.63
2022-12-17T04:14:38.239Z,101617.06
2022-12-17T04:17:39.035Z,101643.88
2022-12-17T04:20:29.577Z,101650.41
2022-12-17T04:23:19.211Z,101633.75
2022-12-17T04:26:09.045Z,101653.22
2022-12-17T04:28:58.919Z,101630.75
2022-12-17T04:31:49.012Z,101646.75
2022-12-17T04:34:39.062Z,101647.31
2022-12-17T04:37:29.344Z,101654.84
2022-12-17T04:40:19.175Z,101663.34
2022-12-17T04:43:08.954Z,101659.44
2022-12-17T04:45:58.701Z,101649.13
2022-12-17T04:48:48.838Z,101657.66
2022-12-17T04:51:38.931Z,101636.19
2022-12-17T04:54:29.057Z,101648.69
2022-12-17T04:57:19.104Z,101653.97
2022-12-17T05:00:09.032Z,101659.00
2022-12-17T05:02:58.999Z,101645.38
2022-12-17T05:05:48.850Z,101657.78
2022-12-17T05:08:41.575Z,101656.78
2022-12-17T05:11:48.183Z,101660.34
2022-12-17T05:14:38.021Z,101634.84
2022-12-17T05:17:27.901Z,101667.06
2022-12-17T05:20:17.833Z,101646.50
2022-12-17T05:23:12.128Z,101675.38
2022-12-17T05:26:02.145Z,101675.16
2022-12-17T05:28:52.319Z,101684.44
2022-12-17T05:31:42.304Z,101660.00
2022-12-17T05:34:32.249Z,101673.44
2022-12-17T05:37:22.048Z,101672.88
2022-12-17T05:40:12.799Z,101692.69
2022-12-17T05:43:14.036Z,101701.19
2022-12-17T05:46:04.870Z,101696.03
2022-12-17T05:48:55.573Z,101689.44
2022-12-17T05:51:45.639Z,101705.22
2022-12-17T05:54:35.936Z,101680.03
2022-12-17T05:57:26.178Z,101687.50
2022-12-17T06:00:15.980Z,101705.41
2022-12-17T06:03:05.787Z,101684.94
2022-12-17T06:05:55.563Z,101698.03
2022-12-17T06:08:45.585Z,101680.91
2022-12-17T06:11:35.683Z,101677.88
2022-12-17T06:14:25.747Z,101704.50
2022-12-17T06:17:15.544Z,101710.44
2022-12-17T06:20:05.385Z,101686.91
2022-12-17T06:22:55.157Z,101700.91
2022-12-17T06:25:45.257Z,101720.72
2022-12-17T06:28:35.316Z,101719.72
2022-12-17T06:31:25.177Z,101715.13
2022-12-17T06:34:15.620Z,101725.88
2022-12-17T06:37:05.580Z,101716.38
2022-12-17T06:39:55.345Z,101722.53
2022-12-17T06:42:45.394Z,101695.88
2022-12-17T06:45:35.501Z,101727.13
2022-12-17T06:48:27.550Z,101734.06
2022-12-17T06:51:17.297Z,101733.16
2022-12-17T06:54:06.931Z,101703.72
2022-12-17T06:56:56.651Z,101742.56
2022-12-17T06:59:46.831Z,101737.53
2022-12-17T07:02:37.090Z,101736.75
2022-12-17T07:05:27.635Z,101741.44
2022-12-17T07:08:18.827Z,101735.81
2022-12-17T07:11:08.716Z,101761.47
2022-12-17T07:13:58.546Z,101764.94
2022-12-17T07:16:48.588Z,101773.44
2022-12-17T07:19:38.751Z,101763.69
2022-12-17T07:22:28.826Z,101761.56
2022-12-17T07:25:18.615Z,101739.28
2022-12-17T07:28:13.004Z,101780.41
2022-12-17T07:31:02.685Z,101783.88
2022-12-17T07:33:52.728Z,101784.66
2022-12-17T07:36:42.801Z,101784.66
2022-12-17T07:39:32.916Z,101760.69
2022-12-17T07:42:23.080Z,101782.53
2022-12-17T07:45:12.896Z,101792.56
2022-12-17T07:48:10.321Z,101771.47
2022-12-17T07:51:00.114Z,101788.19
2022-12-17T07:53:50.285Z,101797.59
2022-12-17T07:56:40.422Z,101807.47
2022-12-17T07:59:30.466Z,101775.88
2022-12-17T08:02:20.309Z,101805.78
2022-12-17T08:05:10.171Z,101798.75
2022-12-17T08:07:59.928Z,101821.16
2022-12-17T08:10:50.015Z,101777.69
2022-12-17T08:13:40.125Z,101830.09
2022-12-17T08:16:30.401Z,101833.91
2022-12-17T08:19:20.548Z,101829.31
2022-12-17T08:22:10.666Z,101817.88
2022-12-17T08:25:00.683Z,101839.28
2022-12-17T08:27:50.718Z,101830.94
2022-12-17T08:30:40.862Z,101830.22
2022-12-17T08:33:31.040Z,101796.63
2022-12-17T08:36:20.852Z,101855.63
2022-12-17T08:39:10.857Z,101858.16
2022-12-17T08:42:04.285Z,101864.63
2022-12-17T08:44:54.609Z,101879.19
2022-12-17T08:47:47.268Z,101851.38
2022-12-17T08:50:37.243Z,101871.72
2022-12-17T08:53:31.922Z,101880.88
2022-12-17T08:56:25.069Z,101847.25
2022-12-17T08:59:15.360Z,101897.16
2022-12-17T09:02:05.503Z,101894.00
2022-12-17T09:04:55.761Z,101890.16
2022-12-17T09:07:45.802Z,101883.50
2022-12-17T09:10:35.770Z,101855.06
2022-12-17T09:13:25.698Z,101880.53
2022-12-17T09:16:15.493Z,101886.69
2022-12-17T09:19:05.455Z,101876.56
2022-12-17T09:21:55.369Z,101893.09
2022-12-17T09:24:45.348Z,101861.47
2022-12-17T09:27:35.423Z,101881.16
2022-12-17T09:30:25.993Z,101879.19
2022-12-17T09:33:16.156Z,101890.91
2022-12-17T09:36:05.929Z,101899.44
2022-12-17T09:39:15.471Z,101885.19
2022-12-17T09:42:16.200Z,101891.34
2022-12-17T09:45:22.173Z,101891.13
2022-12-17T09:48:44.154Z,101886.34
2022-12-17T09:51:45.376Z,101896.75
2022-12-17T09:54:41.595Z,101890.28
2022-12-17T09:57:36.871Z,101896.72
2022-12-17T10:00:44.996Z,101857.03
2022-12-17T10:03:42.174Z,101896.66
2022-12-17T10:06:38.674Z,101895.69
2022-12-17T10:09:32.898Z,101883.81
2022-12-17T10:12:35.153Z,101903.94
2022-12-17T10:15:26.640Z,101906.81
2022-12-17T10:18:23.849Z,101909.06
2022-12-17T10:21:17.352Z,101865.63
2022-12-17T10:24:07.042Z,101899.13
2022-12-17T10:26:57.373Z,101915.69
2022-12-17T10:29:50.088Z,101917.13
2022-12-17T10:32:44.771Z,101915.00
2022-12-17T10:35:43.981Z,101913.75
2022-12-17T10:38:47.702Z,101914.28
2022-12-17T10:41:50.449Z,101910.88
2022-12-17T10:44:53.824Z,101922.84
2022-12-17T10:47:45.984Z,101911.84
2022-12-17T10:50:42.570Z,101905.75
2022-12-17T10:53:41.437Z,101910.03
2022-12-17T10:56:45.357Z,101884.38
2022-12-17T10:59:55.293Z,101915.06
2022-12-17T11:02:48.549Z,101914.44
2022-12-17T11:05:59.242Z,101909.25
2022-12-17T11:08:50.485Z,101914.06
2022-12-17T11:11:44.131Z,101918.63
2022-12-17T11:14:33.992Z,101897.34
2022-12-17T11:17:29.690Z,101922.44
2022-12-17T11:20:25.119Z,101919.22
2022-12-17T11:23:18.026Z,101904.09
2022-12-17T11:26:28.719Z,101894.50
2022-12-17T11:29:19.289Z,101909.06
2022-12-17T11:32:22.161Z,101902.66
2022-12-17T11:35:24.410Z,101910.31
2022-12-17T11:38:22.823Z,101916.56
2022-12-17T11:41:26.792Z,101913.31
2022-12-17T11:44:54.654Z,101911.78
2022-12-17T11:48:08.630Z,101912.91
2022-12-17T11:51:19.167Z,101911.31
2022-12-17T11:54:22.988Z,101916.75
2022-12-17T11:57:31.349Z,101917.81
2022-12-17T12:00:34.177Z,101902.53
2022-12-17T12:03:54.277Z,101922.34
2022-12-17T12:07:18.984Z,101924.47
2022-12-17T12:10:18.857Z,101922.84
2022-12-17T12:13:38.709Z,101923.00
2022-12-17T12:16:43.678Z,101903.50
2022-12-17T12:19:45.527Z,101924.97
2022-12-17T12:22:38.727Z,101923.50
2022-12-17T12:25:52.060Z,101900.59
2022-12-17T12:29:08.047Z,101919.25
2022-12-17T12:32:37.274Z,101910.41
2022-12-17T12:35:35.647Z,101918.41
2022-12-17T12:38:37.870Z,101921.03
2022-12-17T12:41:45.265Z,101919.41
2022-12-17T12:44:49.885Z,101914.72
2022-12-17T12:48:13.862Z,101922.06
2022-12-17T12:51:14.775Z,101923.88
2022-12-17T12:54:16.242Z,101920.38
2022-12-17T12:57:05.947Z,101927.38
2022-12-17T12:59:58.868Z,101903.50
2022-12-17T13:02:50.932Z,101929.16
2022-12-17T13:05:33.576Z,101910.63
2022-12-17T13:08:07.925Z,101926.88
2022-12-17T13:10:40.431Z,101933.94
2022-12-17T13:13:17.927Z,101933.19
2022-12-17T13:15:55.804Z,101926.38
2022-12-17T13:18:36.969Z,101917.28
2022-12-17T13:21:14.378Z,101938.56
2022-12-17T13:23:45.640Z,101938.56
2022-12-17T13:26:21.727Z,101928.09
2022-12-17T13:28:56.066Z,101938.41
2022-12-17T13:31:32.083Z,101934.84
2022-12-17T13:34:49.159Z,101941.97
2022-12-17T13:37:31.747Z,101934.25
2022-12-17T13:40:40.639Z,101930.84
2022-12-17T13:43:21.368Z,101935.16
2022-12-17T13:45:55.644Z,101941.97
2022-12-17T13:48:30.264Z,101927.28
2022-12-17T13:51:04.721Z,101953.19
2022-12-17T13:53:38.154Z,101940.69
2022-12-17T13:56:10.405Z,101955.00
2022-12-17T13:58:42.736Z,101953.84
2022-12-17T14:01:14.477Z,101961.81
2022-12-17T14:04:08.073Z,101953.84
2022-12-17T14:06:39.577Z,101919.75
2022-12-17T14:09:17.324Z,101962.38
2022-12-17T14:12:08.071Z,101950.53
2022-12-17T14:14:42.876Z,101953.03
2022-12-17T14:17:26.312Z,101966.00
2022-12-17T14:20:02.219Z,101964.78
2022-12-17T14:22:37.751Z,101968.75
2022-12-17T14:25:18.174Z,101960.03
2022-12-17T14:27:55.812Z,101954.25
2022-12-17T14:30:32.969Z,101973.50
2022-12-17T14:33:24.069Z,101971.38
2022-12-17T14:36:23.504Z,101975.34
2022-12-17T14:38:57.583Z,101960.69
2022-12-17T14:41:55.746Z,101978.16
2022-12-17T14:44:29.840Z,101938.44
2022-12-17T14:47:15.714Z,101956.72
2022-12-17T14:50:00.458Z,101989.13
2022-12-17T14:52:40.142Z,101989.41
2022-12-17T14:55:34.677Z,102002.03
2022-12-17T14:58:16.224Z,101986.13
2022-12-17T15:01:06.789Z,101994.38
2022-12-17T15:03:48.361Z,101991.22
2022-12-17T15:06:20.404Z,101996.88
2022-12-17T15:08:53.192Z,102000.00
2022-12-17T15:11:25.112Z,102008.22
2022-12-17T15:13:56.976Z,102006.06
2022-12-17T15:16:28.445Z,101999.59
2022-12-17T15:19:01.030Z,101998.44
2022-12-17T15:21:32.692Z,102003.25
2022-12-17T15:24:04.279Z,101978.09
2022-12-17T15:26:35.534Z,101994.91
2022-12-17T15:29:06.852Z,101992.75
2022-12-17T15:31:38.279Z,101985.31
2022-12-17T15:34:12.293Z,101993.19
2022-12-17T15:36:43.692Z,102003.25
2022-12-17T15:39:14.948Z,102002.97
2022-12-17T15:42:04.724Z,102007.00
2022-12-17T15:44:36.097Z,102005.91
2022-12-17T15:47:07.435Z,102009.13
2022-12-17T15:49:38.868Z,101994.00
2022-12-17T15:52:10.974Z,101999.28
2022-12-17T15:54:42.766Z,102007.84
2022-12-17T15:57:18.331Z,102012.84
2022-12-17T15:59:53.036Z,102004.69
2022-12-17T16:02:24.394Z,102012.16
2022-12-17T16:04:55.793Z,102014.56
2022-12-17T16:07:27.074Z,102023.84
2022-12-17T16:10:04.519Z,102020.84
2022-12-17T16:12:36.833Z,102020.38
2022-12-17T16:15:09.922Z,102019.28
2022-12-17T16:17:41.311Z,102017.09
2022-12-17T16:20:12.679Z,102014.50
2022-12-17T16:22:44.342Z,102027.94
2022-12-17T16:25:15.909Z,102033.81
2022-12-17T16:27:47.293Z,102029.44
2022-12-17T16:30:18.794Z,102030.94
2022-12-17T16:32:50.173Z,102037.69
2022-12-17T16:35:23.617Z,102040.88
2022-12-17T16:37:54.894Z,102010.50
2022-12-17T16:40:26.153Z,102040.69
2022-12-17T16:42:57.460Z,102044.97
2022-12-17T16:45:28.745Z,102040.28
2022-12-17T16:48:00.079Z,102023.34
2022-12-17T16:50:31.456Z,102042.88
2022-12-17T16:53:02.787Z,102039.59
2022-12-17T16:55:40.449Z,102030.81
2022-12-17T16:58:13.254Z,102017.88
2022-12-17T17:00:46.433Z,102043.56
2022-12-17T17:03:17.940Z,102030.41
2022-12-17T17:05:49.367Z,102024.13
2022-12-17T17:08:20.715Z,102035.78
2022-12-17T17:10:52.101Z,102032.91
2022-12-17T17:13:23.344Z,102040.66
2022-12-17T17:15:54.665Z,102036.28
2022-12-17T17:18:28.932Z,102026.13
2022-12-17T17:21:18.870Z,102050.91
2022-12-17T17:23:57.240Z,102059.28
2022-12-17T17:26:31.728Z,102031.50
2022-12-17T17:29:04.518Z,102059.06
2022-12-17T17:32:08.413Z,102061.44
2022-12-17T17:34:28.088Z,102059.28
2022-12-17T17:36:59.408Z,102071.22
2022-12-17T17:39:33.007Z,102047.78
2022-12-17T17:42:04.708Z,102070.78
2022-12-17T17:44:37.124Z,102053.53
2022-12-17T17:47:08.437Z,102065.91
2022-12-17T17:49:39.968Z,102076.56
2022-12-17T17:52:12.032Z,102076.34
2022-12-17T17:54:43.656Z,102079.63
2022-12-17T17:57:15.015Z,102060.47
2022-12-17T17:59:46.490Z,102076.28
2022-12-17T18:02:17.928Z,102083.47
2022-12-17T18:04:49.391Z,102064.53
2022-12-17T18:07:25.573Z,102084.16
2022-12-17T18:09:59.598Z,102075.88
2022-12-17T18:12:49.454Z,102091.81
2022-12-17T18:15:20.795Z,102084.75
2022-12-17T18:17:52.320Z,102057.34
2022-12-17T18:20:23.686Z,102080.09
2022-12-17T18:22:54.965Z,102066.97
2022-12-17T18:25:26.318Z,102086.31
2022-12-17T18:27:57.627Z,102067.38
2022-12-17T18:30:28.888Z,102089.50
2022-12-17T18:33:00.136Z,102088.47
2022-12-17T18:35:31.397Z,102087.38
2022-12-17T18:38:02.724Z,102080.69
2022-12-17T18:40:35.471Z,102091.06
2022-12-17T18:43:24.244Z,102077.19
2022-12-17T18:45:55.699Z,102085.53
2022-12-17T18:48:29.248Z,102077.34
2022-12-17T18:51:06.750Z,102106.53
2022-12-17T18:53:38.002Z,102095.13
2022-12-17T18:56:10.307Z,102121.72
2022-12-17T18:58:42.647Z,102123.22
2022-12-17T19:01:26.546Z,102095.84
2022-12-17T19:04:02.204Z,102126.94
2022-12-17T19:06:35.228Z,102119.75
2022-12-17T19:09:07.912Z,102096.03
2022-12-17T19:11:43.538Z,102116.03
2022-12-17T19:14:17.098Z,102128.66
2022-12-17T19:16:49.947Z,102141.47
2022-12-17T19:19:22.208Z,102137.00
2022-12-17T19:21:55.075Z,102147.44
2022-12-17T19:24:26.402Z,102119.53
2022-12-17T19:26:57.784Z,102150.91
2022-12-17T19:29:29.171Z,102145.53
2022-12-17T19:32:00.625Z,102153.97
2022-12-17T19:34:32.340Z,102155.75
2022-12-17T19:37:04.599Z,102129.19
2022-12-17T19:39:35.924Z,102151.31
2022-12-17T19:42:24.179Z,102152.88
2022-12-17T19:44:55.503Z,102160.81
2022-12-17T19:47:28.809Z,102118.31
2022-12-17T19:50:00.144Z,102141.31
2022-12-17T19:52:31.471Z,102151.31
2022-12-17T19:55:02.980Z,102155.47
2022-12-17T19:57:34.637Z,102139.31
2022-12-17T20:00:06.555Z,102149.19
2022-12-17T20:02:37.934Z,102151.88
2022-12-17T20:05:09.489Z,102122.34
2022-12-17T20:07:40.948Z,102143.22
2022-12-17T20:10:12.303Z,102145.91
2022-12-17T20:12:44.437Z,102147.72
2022-12-17T20:15:15.846Z,102123.38
2022-12-17T20:17:47.103Z,102148.50
2022-12-17T20:20:18.377Z,102157.84
2022-12-17T20:22:49.717Z,102163.78
2022-12-17T20:25:21.169Z,102165.38
2022-12-17T20:27:52.481Z,102148.19
2022-12-17T20:30:23.762Z,102161.66
2022-12-17T20:32:55.011Z,102173.00
2022-12-17T20:35:29.360Z,102159.09
2022-12-17T20:38:00.632Z,102171.22
2022-12-17T20:40:31.894Z,102171.31
2022-12-17T20:43:03.768Z,102169.63
2022-12-17T20:45:35.526Z,102169.75
2022-12-17T20:48:06.938Z,102164.34
2022-12-17T20:50:40.819Z,102170.53
2022-12-17T20:53:12.189Z,102173.13
2022-12-17T20:55:43.567Z,102166.03
2022-12-17T20:58:15.585Z,102149.56
2022-12-17T21:00:46.862Z,102178.84
2022-12-17T21:03:18.231Z,102173.91
2022-12-17T21:05:49.504Z,102176.06
2022-12-17T21:08:20.870Z,102170.09
2022-12-17T21:10:56.302Z,102192.13
2022-12-17T21:13:30.694Z,102184.03
2022-12-17T21:16:05.254Z,102201.78
2022-12-17T21:18:37.068Z,102196.28
2022-12-17T21:21:12.090Z,102214.81
2022-12-17T21:23:45.115Z,102205.16
2022-12-17T21:26:27.049Z,102212.22
2022-12-17T21:28:59.676Z,102210.44
2022-12-17T21:31:37.940Z,102207.97
2022-12-17T21:34:21.412Z,102212.44
2022-12-17T21:36:52.861Z,102215.94
2022-12-17T21:39:24.152Z,102149.81
2022-12-17T21:42:13.985Z,102206.50
2022-12-17T21:44:48.120Z,102210.31
2022-12-17T21:47:19.669Z,102215.72
2022-12-17T21:49:50.970Z,102215.47
2022-12-17T21:52:22.299Z,102188.44
2022-12-17T21:54:53.569Z,102207.66
2022-12-17T21:57:24.853Z,102229.06
2022-12-17T21:59:56.242Z,102231.53
2022-12-17T22:02:27.766Z,102219.78
2022-12-17T22:04:59.227Z,102223.25
2022-12-17T22:07:36.173Z,102220.44
2022-12-17T22:10:47.343Z,102198.41
2022-12-17T22:13:24.628Z,102209.88
2022-12-17T22:15:56.080Z,102223.47
2022-12-17T22:18:27.384Z,102223.34
2022-12-17T22:21:00.482Z,102226.84
2022-12-17T22:23:32.799Z,102215.72
2022-12-17T22:26:09.073Z,102226.41
2022-12-17T22:28:40.759Z,102223.03
2022-12-17T22:31:31.216Z,102221.34
2022-12-17T22:35:11.907Z,102221.22
2022-12-17T22:41:27.967Z,102224.72
2022-12-17T22:44:10.259Z,102231.69
2022-12-17T22:44:36.966Z,102222.47
2022-12-17T22:45:49.086Z,102212.47
2022-12-17T22:48:20.513Z,102220.88
2022-12-17T22:51:03.931Z,102227.28
2022-12-17T22:53:43.666Z,102230.88
2022-12-17T22:56:25.102Z,102230.88
2022-12-17T22:59:06.986Z,102210.78
2022-12-17T23:01:38.303Z,102190.91
2022-12-17T23:04:12.647Z,102202.81
2022-12-17T23:06:45.682Z,102210.47
2022-12-17T23:09:19.227Z,102210.56
2022-12-17T23:11:50.873Z,102209.00
2022-12-17T23:14:22.175Z,102216.03
2022-12-17T23:16:53.496Z,102223.78
2022-12-17T23:19:24.995Z,102221.13
2022-12-17T23:21:56.257Z,102190.13
2022-12-17T23:24:27.513Z,102162.94
2022-12-17T23:26:58.850Z,102219.22
2022-12-17T23:29:30.175Z,102201.25
2022-12-17T23:32:02.846Z,102194.84
2022-12-17T23:34:34.099Z,102239.50
2022-12-17T23:37:05.357Z,102231.53
2022-12-17T23:39:36.724Z,102228.16
2022-12-17T23:42:08.051Z,102228.97
2022-12-17T23:44:39.307Z,102225.47
2022-12-17T23:47:10.802Z,102201.13
2022-12-17T23:49:42.065Z,102230.34
2022-12-17T23:52:13.414Z,102222.59
2022-12-17T23:54:44.659Z,102210.34
2022-12-17T23:57:15.930Z,102192.13
2022-12-17T23:59:47.192Z,102236.72
